sensor_id;sensor_type;location;lat;lon;timestamp;temperature;humidity
26378;DHT22;14078;50.974;6.786;2022-09-09T00:01:35;16.60;63.20
26378;DHT22;14078;50.974;6.786;2022-09-09T00:04:05;16.50;75.80
26378;DHT22;14078;50.974;6.786;2022-09-09T00:06:42;16.40;69.20
26378;DHT22;14078;50.974;6.786;2022-09-09T00:09:12;16.30;86.20
26378;DHT22;14078;50.974;6.786;2022-09-09T00:11:40;16.40;90.30
26378;DHT22;14078;50.974;6.786;2022-09-09T00:14:09;16.60;94.00
26378;DHT22;14078;50.974;6.786;2022-09-09T00:16:38;16.70;85.50
26378;DHT22;14078;50.974;6.786;2022-09-09T00:19:08;16.70;91.80
26378;DHT22;14078;50.974;6.786;2022-09-09T00:24:26;16.90;50.80
26378;DHT22;14078;50.974;6.786;2022-09-09T00:26:56;16.90;57.80
26378;DHT22;14078;50.974;6.786;2022-09-09T00:29:27;16.90;30.50
26378;DHT22;14078;50.974;6.786;2022-09-09T00:31:55;16.90;55.50
26378;DHT22;14078;50.974;6.786;2022-09-09T00:34:24;16.80;88.30
26378;DHT22;14078;50.974;6.786;2022-09-09T00:36:52;16.80;74.00
26378;DHT22;14078;50.974;6.786;2022-09-09T00:39:22;16.80;70.90
26378;DHT22;14078;50.974;6.786;2022-09-09T00:41:54;16.90;85.10
26378;DHT22;14078;50.974;6.786;2022-09-09T00:44:25;16.80;89.90
26378;DHT22;14078;50.974;6.786;2022-09-09T00:46:56;16.80;94.90
26378;DHT22;14078;50.974;6.786;2022-09-09T00:49:30;16.70;97.30
26378;DHT22;14078;50.974;6.786;2022-09-09T00:52:01;16.80;97.40
26378;DHT22;14078;50.974;6.786;2022-09-09T00:54:34;16.80;90.30
26378;DHT22;14078;50.974;6.786;2022-09-09T00:57:10;16.60;97.50
26378;DHT22;14078;50.974;6.786;2022-09-09T00:59:42;16.60;99.90
26378;DHT22;14078;50.974;6.786;2022-09-09T01:02:13;16.70;99.90
26378;DHT22;14078;50.974;6.786;2022-09-09T01:04:42;16.80;99.90
26378;DHT22;14078;50.974;6.786;2022-09-09T01:07:12;16.70;99.90
26378;DHT22;14078;50.974;6.786;2022-09-09T01:09:44;16.60;99.90
26378;DHT22;14078;50.974;6.786;2022-09-09T01:12:14;16.60;99.90
26378;DHT22;14078;50.974;6.786;2022-09-09T01:14:42;16.60;99.90
26378;DHT22;14078;50.974;6.786;2022-09-09T01:17:11;16.60;99.90
26378;DHT22;14078;50.974;6.786;2022-09-09T01:19:44;16.70;98.90
26378;DHT22;14078;50.974;6.786;2022-09-09T01:22:13;16.70;96.70
26378;DHT22;14078;50.974;6.786;2022-09-09T01:24:42;16.50;99.90
26378;DHT22;14078;50.974;6.786;2022-09-09T01:27:15;16.50;99.90
26378;DHT22;14078;50.974;6.786;2022-09-09T01:29:42;16.60;99.90
26378;DHT22;14078;50.974;6.786;2022-09-09T01:34:51;16.50;99.90
26378;DHT22;14078;50.974;6.786;2022-09-09T01:37:18;16.30;99.90
26378;DHT22;14078;50.974;6.786;2022-09-09T01:39:44;16.20;99.90
26378;DHT22;14078;50.974;6.786;2022-09-09T01:42:12;16.10;99.90
26378;DHT22;14078;50.974;6.786;2022-09-09T01:44:41;16.00;99.90
26378;DHT22;14078;50.974;6.786;2022-09-09T01:47:07;16.00;99.90
26378;DHT22;14078;50.974;6.786;2022-09-09T01:49:34;15.90;99.90
26378;DHT22;14078;50.974;6.786;2022-09-09T01:52:01;15.80;99.90
26378;DHT22;14078;50.974;6.786;2022-09-09T01:54:28;15.80;99.90
26378;DHT22;14078;50.974;6.786;2022-09-09T01:56:58;15.80;99.90
26378;DHT22;14078;50.974;6.786;2022-09-09T01:59:31;15.70;99.90
26378;DHT22;14078;50.974;6.786;2022-09-09T02:02:06;15.70;99.90
26378;DHT22;14078;50.974;6.786;2022-09-09T02:04:38;15.80;99.90
26378;DHT22;14078;50.974;6.786;2022-09-09T02:07:07;15.90;99.90
26378;DHT22;14078;50.974;6.786;2022-09-09T02:09:36;16.10;99.90
26378;DHT22;14078;50.974;6.786;2022-09-09T02:12:05;16.10;99.90
26378;DHT22;14078;50.974;6.786;2022-09-09T02:14:34;16.20;99.90
26378;DHT22;14078;50.974;6.786;2022-09-09T02:17:03;16.30;95.90
26378;DHT22;14078;50.974;6.786;2022-09-09T02:19:34;16.20;99.90
26378;DHT22;14078;50.974;6.786;2022-09-09T02:22:02;16.30;92.70
26378;DHT22;14078;50.974;6.786;2022-09-09T02:24:29;16.30;93.60
26378;DHT22;14078;50.974;6.786;2022-09-09T02:26:57;16.40;93.40
26378;DHT22;14078;50.974;6.786;2022-09-09T02:29:26;16.40;92.10
26378;DHT22;14078;50.974;6.786;2022-09-09T02:31:54;16.50;86.20
26378;DHT22;14078;50.974;6.786;2022-09-09T02:34:22;16.40;93.90
26378;DHT22;14078;50.974;6.786;2022-09-09T02:36:51;16.40;99.30
26378;DHT22;14078;50.974;6.786;2022-09-09T02:39:19;16.30;99.90
26378;DHT22;14078;50.974;6.786;2022-09-09T02:41:46;16.20;99.90
26378;DHT22;14078;50.974;6.786;2022-09-09T02:44:13;16.20;99.90
26378;DHT22;14078;50.974;6.786;2022-09-09T02:46:44;16.30;99.90
26378;DHT22;14078;50.974;6.786;2022-09-09T02:49:15;16.20;99.90
26378;DHT22;14078;50.974;6.786;2022-09-09T02:51:45;16.20;99.90
26378;DHT22;14078;50.974;6.786;2022-09-09T02:54:20;16.20;99.90
26378;DHT22;14078;50.974;6.786;2022-09-09T02:56:49;16.20;99.90
26378;DHT22;14078;50.974;6.786;2022-09-09T02:59:18;16.20;99.90
26378;DHT22;14078;50.974;6.786;2022-09-09T03:01:44;16.20;99.90
26378;DHT22;14078;50.974;6.786;2022-09-09T03:04:12;16.10;99.90
26378;DHT22;14078;50.974;6.786;2022-09-09T03:06:38;16.00;99.90
26378;DHT22;14078;50.974;6.786;2022-09-09T03:09:05;16.00;99.90
26378;DHT22;14078;50.974;6.786;2022-09-09T03:11:34;16.00;99.90
26378;DHT22;14078;50.974;6.786;2022-09-09T03:14:01;16.00;99.90
26378;DHT22;14078;50.974;6.786;2022-09-09T03:16:27;16.00;99.90
26378;DHT22;14078;50.974;6.786;2022-09-09T03:18:54;16.00;99.90
26378;DHT22;14078;50.974;6.786;2022-09-09T03:21:20;16.00;99.90
26378;DHT22;14078;50.974;6.786;2022-09-09T03:23:47;16.00;99.90
26378;DHT22;14078;50.974;6.786;2022-09-09T03:26:13;16.00;99.90
26378;DHT22;14078;50.974;6.786;2022-09-09T03:28:42;16.00;99.90
26378;DHT22;14078;50.974;6.786;2022-09-09T03:31:10;16.10;99.90
26378;DHT22;14078;50.974;6.786;2022-09-09T03:33:36;16.20;99.90
26378;DHT22;14078;50.974;6.786;2022-09-09T03:36:03;16.10;99.90
26378;DHT22;14078;50.974;6.786;2022-09-09T03:38:29;16.10;99.90
26378;DHT22;14078;50.974;6.786;2022-09-09T03:40:56;16.10;99.90
26378;DHT22;14078;50.974;6.786;2022-09-09T03:43:24;16.10;99.90
26378;DHT22;14078;50.974;6.786;2022-09-09T03:45:53;16.20;99.90
26378;DHT22;14078;50.974;6.786;2022-09-09T03:48:22;16.30;99.90
26378;DHT22;14078;50.974;6.786;2022-09-09T03:50:50;16.30;99.90
26378;DHT22;14078;50.974;6.786;2022-09-09T03:53:17;16.30;99.90
26378;DHT22;14078;50.974;6.786;2022-09-09T03:55:44;16.40;99.90
26378;DHT22;14078;50.974;6.786;2022-09-09T03:58:11;16.40;99.90
26378;DHT22;14078;50.974;6.786;2022-09-09T04:00:38;16.50;99.90
26378;DHT22;14078;50.974;6.786;2022-09-09T04:03:09;16.50;99.90
26378;DHT22;14078;50.974;6.786;2022-09-09T04:05:35;16.50;99.90
26378;DHT22;14078;50.974;6.786;2022-09-09T04:08:05;16.60;97.90
26378;DHT22;14078;50.974;6.786;2022-09-09T04:10:31;16.80;91.60
26378;DHT22;14078;50.974;6.786;2022-09-09T04:12:58;16.80;90.70
26378;DHT22;14078;50.974;6.786;2022-09-09T04:15:25;16.80;90.20
26378;DHT22;14078;50.974;6.786;2022-09-09T04:17:51;16.80;87.60
26378;DHT22;14078;50.974;6.786;2022-09-09T04:20:19;16.80;87.90
26378;DHT22;14078;50.974;6.786;2022-09-09T04:22:47;16.70;95.80
26378;DHT22;14078;50.974;6.786;2022-09-09T04:25:13;16.90;88.30
26378;DHT22;14078;50.974;6.786;2022-09-09T04:27:40;16.90;89.40
26378;DHT22;14078;50.974;6.786;2022-09-09T04:30:08;16.90;89.50
26378;DHT22;14078;50.974;6.786;2022-09-09T04:32:35;16.90;88.80
26378;DHT22;14078;50.974;6.786;2022-09-09T04:35:02;16.90;82.50
26378;DHT22;14078;50.974;6.786;2022-09-09T04:37:30;16.90;85.30
26378;DHT22;14078;50.974;6.786;2022-09-09T04:39:56;16.80;91.80
26378;DHT22;14078;50.974;6.786;2022-09-09T04:42:23;16.70;97.60
26378;DHT22;14078;50.974;6.786;2022-09-09T04:44:50;16.70;99.90
26378;DHT22;14078;50.974;6.786;2022-09-09T04:47:17;16.70;99.90
26378;DHT22;14078;50.974;6.786;2022-09-09T04:49:43;16.70;94.50
26378;DHT22;14078;50.974;6.786;2022-09-09T04:52:10;16.80;93.60
26378;DHT22;14078;50.974;6.786;2022-09-09T04:54:38;16.80;94.90
26378;DHT22;14078;50.974;6.786;2022-09-09T04:57:05;16.80;93.80
26378;DHT22;14078;50.974;6.786;2022-09-09T04:59:32;16.80;93.90
26378;DHT22;14078;50.974;6.786;2022-09-09T05:01:58;16.80;90.80
26378;DHT22;14078;50.974;6.786;2022-09-09T05:04:26;16.80;95.60
26378;DHT22;14078;50.974;6.786;2022-09-09T05:06:54;16.80;93.10
26378;DHT22;14078;50.974;6.786;2022-09-09T05:09:20;16.80;97.10
26378;DHT22;14078;50.974;6.786;2022-09-09T05:11:48;16.70;97.60
26378;DHT22;14078;50.974;6.786;2022-09-09T05:14:14;16.70;96.40
26378;DHT22;14078;50.974;6.786;2022-09-09T05:16:41;16.70;98.20
26378;DHT22;14078;50.974;6.786;2022-09-09T05:19:09;16.70;96.10
26378;DHT22;14078;50.974;6.786;2022-09-09T05:21:36;16.80;96.40
26378;DHT22;14078;50.974;6.786;2022-09-09T05:24:02;16.80;93.60
26378;DHT22;14078;50.974;6.786;2022-09-09T05:26:29;16.80;91.00
26378;DHT22;14078;50.974;6.786;2022-09-09T05:28:58;16.90;73.50
26378;DHT22;14078;50.974;6.786;2022-09-09T05:31:25;17.00;73.30
26378;DHT22;14078;50.974;6.786;2022-09-09T05:33:53;17.00;76.70
26378;DHT22;14078;50.974;6.786;2022-09-09T05:36:20;16.90;74.10
26378;DHT22;14078;50.974;6.786;2022-09-09T05:38:47;17.00;67.60
26378;DHT22;14078;50.974;6.786;2022-09-09T05:41:14;17.00;70.00
26378;DHT22;14078;50.974;6.786;2022-09-09T05:43:42;17.10;61.50
26378;DHT22;14078;50.974;6.786;2022-09-09T05:46:11;17.10;54.30
26378;DHT22;14078;50.974;6.786;2022-09-09T05:48:38;17.20;44.70
26378;DHT22;14078;50.974;6.786;2022-09-09T05:51:05;17.20;52.10
26378;DHT22;14078;50.974;6.786;2022-09-09T05:53:33;17.30;43.80
26378;DHT22;14078;50.974;6.786;2022-09-09T05:56:01;17.20;37.00
26378;DHT22;14078;50.974;6.786;2022-09-09T05:58:29;17.20;30.50
26378;DHT22;14078;50.974;6.786;2022-09-09T06:01:03;17.30;33.20
26378;DHT22;14078;50.974;6.786;2022-09-09T06:03:31;17.30;29.70
26378;DHT22;14078;50.974;6.786;2022-09-09T06:05:58;17.30;38.60
26378;DHT22;14078;50.974;6.786;2022-09-09T06:08:25;17.30;39.40
26378;DHT22;14078;50.974;6.786;2022-09-09T06:10:51;17.40;25.80
26378;DHT22;14078;50.974;6.786;2022-09-09T06:13:18;17.40;30.60
26378;DHT22;14078;50.974;6.786;2022-09-09T06:15:48;17.40;19.40
26378;DHT22;14078;50.974;6.786;2022-09-09T06:18:15;17.50;19.10
26378;DHT22;14078;50.974;6.786;2022-09-09T06:20:53;17.50;9.50
26378;DHT22;14078;50.974;6.786;2022-09-09T06:23:20;17.50;11.90
26378;DHT22;14078;50.974;6.786;2022-09-09T06:25:46;17.40;12.10
26378;DHT22;14078;50.974;6.786;2022-09-09T06:28:14;17.30;18.70
26378;DHT22;14078;50.974;6.786;2022-09-09T06:30:40;17.30;21.90
26378;DHT22;14078;50.974;6.786;2022-09-09T06:33:07;17.40;16.40
26378;DHT22;14078;50.974;6.786;2022-09-09T06:35:34;17.30;35.10
26378;DHT22;14078;50.974;6.786;2022-09-09T06:38:02;17.40;22.30
26378;DHT22;14078;50.974;6.786;2022-09-09T06:40:29;17.40;43.10
26378;DHT22;14078;50.974;6.786;2022-09-09T06:42:58;17.30;32.20
26378;DHT22;14078;50.974;6.786;2022-09-09T06:45:25;17.40;24.40
26378;DHT22;14078;50.974;6.786;2022-09-09T06:47:54;17.40;22.10
26378;DHT22;14078;50.974;6.786;2022-09-09T06:50:20;17.50;24.20
26378;DHT22;14078;50.974;6.786;2022-09-09T06:52:47;17.60;32.80
26378;DHT22;14078;50.974;6.786;2022-09-09T06:55:15;17.80;23.20
26378;DHT22;14078;50.974;6.786;2022-09-09T06:57:43;17.80;20.70
26378;DHT22;14078;50.974;6.786;2022-09-09T07:00:10;18.00;10.70
26378;DHT22;14078;50.974;6.786;2022-09-09T07:02:39;18.00;1.00
26378;DHT22;14078;50.974;6.786;2022-09-09T07:05:06;18.10;1.00
26378;DHT22;14078;50.974;6.786;2022-09-09T07:07:33;18.10;1.00
26378;DHT22;14078;50.974;6.786;2022-09-09T07:09:59;18.10;1.00
26378;DHT22;14078;50.974;6.786;2022-09-09T07:12:27;18.20;1.00
26378;DHT22;14078;50.974;6.786;2022-09-09T07:14:54;18.20;1.00
26378;DHT22;14078;50.974;6.786;2022-09-09T07:17:20;18.20;1.00
26378;DHT22;14078;50.974;6.786;2022-09-09T07:19:47;18.20;1.00
26378;DHT22;14078;50.974;6.786;2022-09-09T07:22:13;18.40;1.00
26378;DHT22;14078;50.974;6.786;2022-09-09T07:24:41;18.40;1.00
26378;DHT22;14078;50.974;6.786;2022-09-09T07:27:10;18.40;1.00
26378;DHT22;14078;50.974;6.786;2022-09-09T07:29:38;18.50;1.00
26378;DHT22;14078;50.974;6.786;2022-09-09T07:32:04;18.50;1.00
26378;DHT22;14078;50.974;6.786;2022-09-09T07:34:31;18.60;1.00
26378;DHT22;14078;50.974;6.786;2022-09-09T07:36:57;18.60;1.00
26378;DHT22;14078;50.974;6.786;2022-09-09T07:39:24;18.70;1.00
26378;DHT22;14078;50.974;6.786;2022-09-09T07:41:50;18.80;99.90
26378;DHT22;14078;50.974;6.786;2022-09-09T07:44:17;18.80;1.00
26378;DHT22;14078;50.974;6.786;2022-09-09T07:46:47;18.90;99.90
26378;DHT22;14078;50.974;6.786;2022-09-09T07:49:14;19.00;99.90
26378;DHT22;14078;50.974;6.786;2022-09-09T07:51:41;19.20;1.00
26378;DHT22;14078;50.974;6.786;2022-09-09T07:54:08;19.30;99.90
26378;DHT22;14078;50.974;6.786;2022-09-09T07:56:36;19.40;99.90
26378;DHT22;14078;50.974;6.786;2022-09-09T07:59:03;19.50;71.00
26378;DHT22;14078;50.974;6.786;2022-09-09T08:01:32;19.40;99.90
26378;DHT22;14078;50.974;6.786;2022-09-09T08:04:01;19.30;34.90
26378;DHT22;14078;50.974;6.786;2022-09-09T08:06:29;19.30;1.00
26378;DHT22;14078;50.974;6.786;2022-09-09T08:08:56;19.30;99.90
26378;DHT22;14078;50.974;6.786;2022-09-09T08:11:23;19.40;1.60
26378;DHT22;14078;50.974;6.786;2022-09-09T08:13:50;19.50;53.60
26378;DHT22;14078;50.974;6.786;2022-09-09T08:16:18;19.50;1.00
26378;DHT22;14078;50.974;6.786;2022-09-09T08:18:46;19.50;1.00
26378;DHT22;14078;50.974;6.786;2022-09-09T08:21:15;19.40;1.00
26378;DHT22;14078;50.974;6.786;2022-09-09T08:23:43;19.40;1.00
26378;DHT22;14078;50.974;6.786;2022-09-09T08:26:11;19.50;99.90
26378;DHT22;14078;50.974;6.786;2022-09-09T08:28:38;19.60;39.40
26378;DHT22;14078;50.974;6.786;2022-09-09T08:31:06;19.80;17.40
26378;DHT22;14078;50.974;6.786;2022-09-09T08:33:33;19.80;1.00
26378;DHT22;14078;50.974;6.786;2022-09-09T08:35:59;19.80;1.00
26378;DHT22;14078;50.974;6.786;2022-09-09T08:38:27;19.80;1.00
26378;DHT22;14078;50.974;6.786;2022-09-09T08:40:54;19.90;1.00
26378;DHT22;14078;50.974;6.786;2022-09-09T08:43:24;19.90;1.00
26378;DHT22;14078;50.974;6.786;2022-09-09T08:45:55;19.90;1.00
26378;DHT22;14078;50.974;6.786;2022-09-09T08:48:28;19.90;1.00
26378;DHT22;14078;50.974;6.786;2022-09-09T08:50:59;20.10;1.00
26378;DHT22;14078;50.974;6.786;2022-09-09T08:53:29;20.20;1.00
26378;DHT22;14078;50.974;6.786;2022-09-09T08:56:00;20.20;1.00
26378;DHT22;14078;50.974;6.786;2022-09-09T08:58:28;20.30;1.00
26378;DHT22;14078;50.974;6.786;2022-09-09T09:00:58;20.10;1.00
26378;DHT22;14078;50.974;6.786;2022-09-09T09:03:30;20.10;1.00
26378;DHT22;14078;50.974;6.786;2022-09-09T09:05:59;20.00;1.00
26378;DHT22;14078;50.974;6.786;2022-09-09T09:08:29;20.00;1.00
26378;DHT22;14078;50.974;6.786;2022-09-09T09:10:58;20.00;1.00
26378;DHT22;14078;50.974;6.786;2022-09-09T09:13:28;20.00;1.00
26378;DHT22;14078;50.974;6.786;2022-09-09T09:15:57;20.00;1.00
26378;DHT22;14078;50.974;6.786;2022-09-09T09:18:25;20.00;1.00
26378;DHT22;14078;50.974;6.786;2022-09-09T09:20:55;20.00;1.00
26378;DHT22;14078;50.974;6.786;2022-09-09T09:23:25;20.10;1.00
26378;DHT22;14078;50.974;6.786;2022-09-09T09:25:54;20.10;1.00
26378;DHT22;14078;50.974;6.786;2022-09-09T09:28:23;20.10;1.00
26378;DHT22;14078;50.974;6.786;2022-09-09T09:30:52;20.00;1.00
26378;DHT22;14078;50.974;6.786;2022-09-09T09:33:20;19.90;1.00
26378;DHT22;14078;50.974;6.786;2022-09-09T09:35:48;19.90;1.00
26378;DHT22;14078;50.974;6.786;2022-09-09T09:38:16;19.90;1.00
26378;DHT22;14078;50.974;6.786;2022-09-09T09:40:48;19.80;1.00
26378;DHT22;14078;50.974;6.786;2022-09-09T09:43:18;19.90;1.00
26378;DHT22;14078;50.974;6.786;2022-09-09T09:45:46;20.00;1.00
26378;DHT22;14078;50.974;6.786;2022-09-09T09:48:13;20.00;1.00
26378;DHT22;14078;50.974;6.786;2022-09-09T09:50:46;20.10;1.00
26378;DHT22;14078;50.974;6.786;2022-09-09T09:53:17;20.20;1.00
26378;DHT22;14078;50.974;6.786;2022-09-09T09:55:46;20.20;1.00
26378;DHT22;14078;50.974;6.786;2022-09-09T09:58:15;20.30;1.00
26378;DHT22;14078;50.974;6.786;2022-09-09T10:00:48;20.30;1.00
26378;DHT22;14078;50.974;6.786;2022-09-09T10:03:23;20.30;1.00
26378;DHT22;14078;50.974;6.786;2022-09-09T10:05:50;20.30;1.00
26378;DHT22;14078;50.974;6.786;2022-09-09T10:08:17;20.30;1.00
26378;DHT22;14078;50.974;6.786;2022-09-09T10:13:29;20.40;1.00
26378;DHT22;14078;50.974;6.786;2022-09-09T10:16:04;20.40;1.00
26378;DHT22;14078;50.974;6.786;2022-09-09T10:18:36;20.50;1.00
26378;DHT22;14078;50.974;6.786;2022-09-09T10:21:06;20.40;1.00
26378;DHT22;14078;50.974;6.786;2022-09-09T10:23:42;20.40;1.00
26378;DHT22;14078;50.974;6.786;2022-09-09T10:26:16;20.50;1.00
26378;DHT22;14078;50.974;6.786;2022-09-09T10:28:55;20.60;1.00
26378;DHT22;14078;50.974;6.786;2022-09-09T10:31:30;20.60;1.00
26378;DHT22;14078;50.974;6.786;2022-09-09T10:33:59;20.60;1.00
26378;DHT22;14078;50.974;6.786;2022-09-09T10:36:32;20.60;1.00
26378;DHT22;14078;50.974;6.786;2022-09-09T10:38:59;20.60;1.00
26378;DHT22;14078;50.974;6.786;2022-09-09T10:41:38;20.50;1.00
26378;DHT22;14078;50.974;6.786;2022-09-09T10:44:12;20.70;1.00
26378;DHT22;14078;50.974;6.786;2022-09-09T10:46:49;20.80;1.00
26378;DHT22;14078;50.974;6.786;2022-09-09T10:49:20;20.90;1.00
26378;DHT22;14078;50.974;6.786;2022-09-09T10:51:51;20.90;1.00
26378;DHT22;14078;50.974;6.786;2022-09-09T10:54:24;21.10;1.00
26378;DHT22;14078;50.974;6.786;2022-09-09T10:56:55;21.30;1.00
26378;DHT22;14078;50.974;6.786;2022-09-09T10:59:24;21.40;1.00
26378;DHT22;14078;50.974;6.786;2022-09-09T11:01:53;21.50;1.00
26378;DHT22;14078;50.974;6.786;2022-09-09T11:04:23;21.40;1.00
26378;DHT22;14078;50.974;6.786;2022-09-09T11:06:52;21.40;1.00
26378;DHT22;14078;50.974;6.786;2022-09-09T11:09:21;21.30;1.00
26378;DHT22;14078;50.974;6.786;2022-09-09T11:11:49;21.40;1.00
26378;DHT22;14078;50.974;6.786;2022-09-09T11:14:19;21.40;1.00
26378;DHT22;14078;50.974;6.786;2022-09-09T11:16:47;21.30;1.00
26378;DHT22;14078;50.974;6.786;2022-09-09T11:19:16;21.20;1.00
26378;DHT22;14078;50.974;6.786;2022-09-09T11:21:47;21.00;1.00
26378;DHT22;14078;50.974;6.786;2022-09-09T11:24:16;21.00;1.00
26378;DHT22;14078;50.974;6.786;2022-09-09T11:26:45;21.00;1.00
26378;DHT22;14078;50.974;6.786;2022-09-09T11:29:17;21.00;1.00
26378;DHT22;14078;50.974;6.786;2022-09-09T11:31:52;20.90;1.00
26378;DHT22;14078;50.974;6.786;2022-09-09T11:34:27;20.90;1.00
26378;DHT22;14078;50.974;6.786;2022-09-09T11:37:07;20.90;1.00
26378;DHT22;14078;50.974;6.786;2022-09-09T11:39:37;21.00;1.00
26378;DHT22;14078;50.974;6.786;2022-09-09T11:42:05;21.00;1.00
26378;DHT22;14078;50.974;6.786;2022-09-09T11:44:32;20.90;1.00
26378;DHT22;14078;50.974;6.786;2022-09-09T11:46:59;20.80;1.00
26378;DHT22;14078;50.974;6.786;2022-09-09T11:49:28;20.70;1.00
26378;DHT22;14078;50.974;6.786;2022-09-09T11:51:56;20.60;1.00
26378;DHT22;14078;50.974;6.786;2022-09-09T11:54:30;20.60;1.00
26378;DHT22;14078;50.974;6.786;2022-09-09T11:56:57;20.50;1.00
26378;DHT22;14078;50.974;6.786;2022-09-09T11:59:24;20.50;1.00
26378;DHT22;14078;50.974;6.786;2022-09-09T12:01:54;20.40;1.00
26378;DHT22;14078;50.974;6.786;2022-09-09T12:04:30;20.30;1.00
26378;DHT22;14078;50.974;6.786;2022-09-09T12:06:58;20.30;1.00
26378;DHT22;14078;50.974;6.786;2022-09-09T12:09:27;20.30;1.00
26378;DHT22;14078;50.974;6.786;2022-09-09T12:12:06;20.20;1.00
26378;DHT22;14078;50.974;6.786;2022-09-09T12:14:36;20.10;1.00
26378;DHT22;14078;50.974;6.786;2022-09-09T12:19:47;20.00;1.00
26378;DHT22;14078;50.974;6.786;2022-09-09T12:22:16;20.00;1.00
26378;DHT22;14078;50.974;6.786;2022-09-09T12:24:46;20.10;1.00
26378;DHT22;14078;50.974;6.786;2022-09-09T12:27:15;20.10;1.00
26378;DHT22;14078;50.974;6.786;2022-09-09T12:29:44;20.10;1.00
26378;DHT22;14078;50.974;6.786;2022-09-09T12:32:14;20.20;1.00
26378;DHT22;14078;50.974;6.786;2022-09-09T12:34:42;20.20;1.00
26378;DHT22;14078;50.974;6.786;2022-09-09T12:37:16;20.10;1.00
26378;DHT22;14078;50.974;6.786;2022-09-09T12:39:45;20.00;99.90
26378;DHT22;14078;50.974;6.786;2022-09-09T12:42:18;19.40;99.90
26378;DHT22;14078;50.974;6.786;2022-09-09T12:44:52;18.80;1.00
26378;DHT22;14078;50.974;6.786;2022-09-09T12:47:19;18.30;66.70
26378;DHT22;14078;50.974;6.786;2022-09-09T12:49:46;18.10;99.90
26378;DHT22;14078;50.974;6.786;2022-09-09T12:52:17;18.30;99.90
26378;DHT22;14078;50.974;6.786;2022-09-09T12:54:46;18.50;99.90
26378;DHT22;14078;50.974;6.786;2022-09-09T12:57:13;18.60;99.90
26378;DHT22;14078;50.974;6.786;2022-09-09T12:59:40;18.80;99.90
26378;DHT22;14078;50.974;6.786;2022-09-09T13:02:14;18.90;98.40
26378;DHT22;14078;50.974;6.786;2022-09-09T13:04:42;19.10;95.80
26378;DHT22;14078;50.974;6.786;2022-09-09T13:07:10;19.30;82.80
26378;DHT22;14078;50.974;6.786;2022-09-09T13:09:38;19.50;55.20
26378;DHT22;14078;50.974;6.786;2022-09-09T13:12:05;19.60;26.80
26378;DHT22;14078;50.974;6.786;2022-09-09T13:14:34;19.60;27.10
26378;DHT22;14078;50.974;6.786;2022-09-09T13:17:03;19.50;1.60
26378;DHT22;14078;50.974;6.786;2022-09-09T13:19:31;19.60;22.90
26378;DHT22;14078;50.974;6.786;2022-09-09T13:21:58;19.70;36.00
26378;DHT22;14078;50.974;6.786;2022-09-09T13:24:26;19.80;12.40
26378;DHT22;14078;50.974;6.786;2022-09-09T13:26:56;19.90;1.00
26378;DHT22;14078;50.974;6.786;2022-09-09T13:29:22;20.10;1.00
26378;DHT22;14078;50.974;6.786;2022-09-09T13:31:49;20.20;1.00
26378;DHT22;14078;50.974;6.786;2022-09-09T13:34:25;20.20;1.00
26378;DHT22;14078;50.974;6.786;2022-09-09T13:36:53;20.10;1.00
26378;DHT22;14078;50.974;6.786;2022-09-09T13:39:21;20.00;1.00
26378;DHT22;14078;50.974;6.786;2022-09-09T13:41:48;19.90;1.00
26378;DHT22;14078;50.974;6.786;2022-09-09T13:44:17;19.80;1.00
26378;DHT22;14078;50.974;6.786;2022-09-09T13:46:45;19.80;1.00
26378;DHT22;14078;50.974;6.786;2022-09-09T13:49:19;19.80;1.00
26378;DHT22;14078;50.974;6.786;2022-09-09T13:51:47;19.90;1.00
26378;DHT22;14078;50.974;6.786;2022-09-09T13:54:17;19.90;1.00
26378;DHT22;14078;50.974;6.786;2022-09-09T13:56:44;19.80;1.00
26378;DHT22;14078;50.974;6.786;2022-09-09T13:59:11;19.90;1.00
26378;DHT22;14078;50.974;6.786;2022-09-09T14:01:40;19.70;27.00
26378;DHT22;14078;50.974;6.786;2022-09-09T14:04:07;19.40;51.80
26378;DHT22;14078;50.974;6.786;2022-09-09T14:06:33;19.30;99.90
26378;DHT22;14078;50.974;6.786;2022-09-09T14:09:02;19.20;99.90
26378;DHT22;14078;50.974;6.786;2022-09-09T14:11:28;19.20;78.50
26378;DHT22;14078;50.974;6.786;2022-09-09T14:13:55;19.20;77.80
26378;DHT22;14078;50.974;6.786;2022-09-09T14:16:22;19.10;47.10
26378;DHT22;14078;50.974;6.786;2022-09-09T14:18:49;19.00;47.20
26378;DHT22;14078;50.974;6.786;2022-09-09T14:21:16;18.70;51.70
26378;DHT22;14078;50.974;6.786;2022-09-09T14:23:43;18.40;62.30
26378;DHT22;14078;50.974;6.786;2022-09-09T14:26:09;18.20;70.50
26378;DHT22;14078;50.974;6.786;2022-09-09T14:28:36;18.00;73.10
26378;DHT22;14078;50.974;6.786;2022-09-09T14:31:03;17.90;89.70
26378;DHT22;14078;50.974;6.786;2022-09-09T14:33:30;17.80;96.60
26378;DHT22;14078;50.974;6.786;2022-09-09T14:35:58;17.80;99.90
26378;DHT22;14078;50.974;6.786;2022-09-09T14:38:28;17.80;99.90
26378;DHT22;14078;50.974;6.786;2022-09-09T14:40:54;18.00;99.90
26378;DHT22;14078;50.974;6.786;2022-09-09T14:43:21;18.10;99.90
26378;DHT22;14078;50.974;6.786;2022-09-09T14:45:47;18.30;98.30
26378;DHT22;14078;50.974;6.786;2022-09-09T14:48:16;18.50;99.90
26378;DHT22;14078;50.974;6.786;2022-09-09T14:50:43;18.50;93.50
26378;DHT22;14078;50.974;6.786;2022-09-09T14:53:10;18.60;81.90
26378;DHT22;14078;50.974;6.786;2022-09-09T14:55:37;18.60;76.30
26378;DHT22;14078;50.974;6.786;2022-09-09T14:58:04;18.70;76.50
26378;DHT22;14078;50.974;6.786;2022-09-09T15:00:31;18.70;58.80
26378;DHT22;14078;50.974;6.786;2022-09-09T15:02:58;18.80;61.60
26378;DHT22;14078;50.974;6.786;2022-09-09T15:05:24;18.80;64.70
26378;DHT22;14078;50.974;6.786;2022-09-09T15:07:51;18.90;56.40
26378;DHT22;14078;50.974;6.786;2022-09-09T15:10:18;19.00;86.50
26378;DHT22;14078;50.974;6.786;2022-09-09T15:12:45;19.10;43.30
26378;DHT22;14078;50.974;6.786;2022-09-09T15:15:12;19.10;67.50
26378;DHT22;14078;50.974;6.786;2022-09-09T15:17:38;19.20;24.00
26378;DHT22;14078;50.974;6.786;2022-09-09T15:20:05;19.10;37.80
26378;DHT22;14078;50.974;6.786;2022-09-09T15:22:32;19.10;47.60
26378;DHT22;14078;50.974;6.786;2022-09-09T15:25:02;19.00;51.10
26378;DHT22;14078;50.974;6.786;2022-09-09T15:27:29;19.10;57.70
26378;DHT22;14078;50.974;6.786;2022-09-09T15:29:56;19.80;40.50
26378;DHT22;14078;50.974;6.786;2022-09-09T15:32:23;20.00;22.20
26378;DHT22;14078;50.974;6.786;2022-09-09T15:34:49;19.90;20.80
26378;DHT22;14078;50.974;6.786;2022-09-09T15:37:18;19.70;29.40
26378;DHT22;14078;50.974;6.786;2022-09-09T15:39:44;19.80;46.50
26378;DHT22;14078;50.974;6.786;2022-09-09T15:42:11;20.00;8.90
26378;DHT22;14078;50.974;6.786;2022-09-09T15:44:39;20.10;4.80
26378;DHT22;14078;50.974;6.786;2022-09-09T15:47:07;20.20;1.00
26378;DHT22;14078;50.974;6.786;2022-09-09T15:49:35;20.00;9.00
26378;DHT22;14078;50.974;6.786;2022-09-09T15:52:01;20.10;4.80
26378;DHT22;14078;50.974;6.786;2022-09-09T15:54:30;20.50;2.90
26378;DHT22;14078;50.974;6.786;2022-09-09T15:56:58;21.30;1.00